Time;durP1;ratioP1;P1;durP2;ratioP2;P2;SDS_P1;SDS_P2;PMS_P1;PMS_P2;Temp;Humidity;BMP_temperature;BMP_pressure;BME280_temperature;BME280_humidity;BME280_pressure;Samples;Min_cycle;Max_cycle;Signal;HPM_P1;HPM_P2
2022/10/16 00:02:12;;;;;;;0.50;0.50;;;13.10;99.90;;;;;;4955229;28;20593;-85
2022/10/16 00:04:38;;;;;;;0.50;0.50;;;13.20;99.90;;;;;;4967858;28;20040;-83
2022/10/16 00:07:07;;;;;;;0.50;0.50;;;13.20;99.90;;;;;;4962265;28;20055;-84
2022/10/16 00:09:51;;;;;;;0.50;0.50;;;13.20;99.90;;;;;;4952563;28;20060;-85
2022/10/16 00:12:17;;;;;;;0.50;0.50;;;13.10;99.90;;;;;;4955999;28;20044;-84
2022/10/16 00:15:09;;;;;;;0.50;0.50;;;13.20;99.90;;;;;;4970370;28;20052;-86
2022/10/16 00:17:49;;;;;;;0.50;0.50;;;13.10;99.90;;;;;;4978282;28;20052;-86
2022/10/16 00:20:48;;;;;;;0.50;0.50;;;13.20;99.90;;;;;;4984917;28;20048;-88
2022/10/16 00:23:27;;;;;;;;;;;;;;;;;;;;;
2022/10/16 00:26:30;;;;;;;0.50;0.50;;;13.20;99.90;;;;;;4971695;28;20512;-87
2022/10/16 00:29:06;;;;;;;0.50;0.50;;;13.20;99.90;;;;;;4954070;28;20409;-84
2022/10/16 00:31:36;;;;;;;0.50;0.50;;;13.30;99.90;;;;;;4973289;28;20051;-85
2022/10/16 00:34:04;;;;;;;0.50;0.50;;;13.30;99.90;;;;;;4940261;28;20052;-82
2022/10/16 00:36:37;;;;;;;0.50;0.50;;;13.30;99.90;;;;;;4991241;28;20059;-86
2022/10/16 00:39:11;;;;;;;0.50;0.50;;;13.30;99.90;;;;;;4961721;28;20105;-85
2022/10/16 00:41:40;;;;;;;0.50;0.50;;;13.30;99.90;;;;;;4969745;28;20221;-86
2022/10/16 00:45:01;;;;;;;0.60;0.60;;;13.30;99.90;;;;;;4941868;28;20351;-86
2022/10/16 00:47:55;;;;;;;0.50;0.50;;;13.30;99.90;;;;;;4952494;28;20045;-84
2022/10/16 00:50:43;;;;;;;0.60;0.60;;;13.30;99.90;;;;;;4955701;28;20053;-84
2022/10/16 00:53:12;;;;;;;0.50;0.50;;;13.30;99.90;;;;;;4960252;28;20536;-85
2022/10/16 00:55:47;;;;;;;0.50;0.50;;;13.30;99.90;;;;;;4958332;28;20610;-85
2022/10/16 00:58:29;;;;;;;0.50;0.50;;;13.30;99.90;;;;;;4939778;28;20083;-84
2022/10/16 01:01:01;;;;;;;0.60;0.60;;;13.30;99.90;;;;;;4969850;28;20063;-86
2022/10/16 01:04:19;;;;;;;0.50;0.50;;;13.30;99.90;;;;;;4976491;28;20093;-87
2022/10/16 01:07:24;;;;;;;0.60;0.60;;;13.30;99.90;;;;;;4988708;28;20833;-86
2022/10/16 01:10:27;;;;;;;0.50;0.50;;;13.30;99.90;;;;;;4990536;28;20056;-86
2022/10/16 01:13:06;;;;;;;0.50;0.50;;;13.30;99.90;;;;;;4987319;28;20666;-87
2022/10/16 01:16:13;;;;;;;0.50;0.50;;;13.30;99.90;;;;;;4970288;28;20047;-86
2022/10/16 01:18:56;;;;;;;0.50;0.50;;;13.30;99.90;;;;;;4994987;28;20059;-86
2022/10/16 01:21:39;;;;;;;0.50;0.50;;;13.30;99.90;;;;;;4994101;28;20381;-87
2022/10/16 01:24:36;;;;;;;0.50;0.50;;;13.20;99.90;;;;;;4990785;28;20578;-86
2022/10/16 01:27:38;;;;;;;0.50;0.50;;;13.20;99.90;;;;;;4975010;28;20044;-85
2022/10/16 01:30:35;;;;;;;0.50;0.50;;;13.20;99.90;;;;;;4932422;28;20217;-85
2022/10/16 01:33:29;;;;;;;0.50;0.50;;;13.30;99.90;;;;;;4978984;28;20642;-84
2022/10/16 01:36:26;;;;;;;0.50;0.50;;;13.20;99.90;;;;;;4962783;28;20093;-85
2022/10/16 01:39:10;;;;;;;0.50;0.50;;;13.20;99.90;;;;;;5009598;28;20500;-83
2022/10/16 01:42:49;;;;;;;0.50;0.50;;;13.20;99.90;;;;;;5015484;28;20343;-85
2022/10/16 01:45:27;;;;;;;0.50;0.50;;;13.20;99.90;;;;;;4976392;28;20545;-85
2022/10/16 01:48:10;;;;;;;;;;;;;;;;;;;;;
2022/10/16 01:50:52;;;;;;;0.50;0.50;;;13.10;99.90;;;;;;4991519;28;20928;-84
2022/10/16 01:53:51;;;;;;;0.50;0.50;;;13.10;99.90;;;;;;4974886;28;20786;-84
2022/10/16 01:56:25;;;;;;;0.50;0.50;;;13.10;99.90;;;;;;4977604;28;20499;-85
2022/10/16 01:59:05;;;;;;;0.50;0.50;;;13.00;99.90;;;;;;5006483;28;20786;-84
2022/10/16 02:01:38;;;;;;;0.50;0.50;;;13.00;99.90;;;;;;4980295;28;20055;-84
2022/10/16 02:04:26;;;;;;;0.50;0.50;;;13.00;99.90;;;;;;4967847;28;20051;-85
2022/10/16 02:06:53;;;;;;;0.57;0.57;;;13.00;99.90;;;;;;4981947;28;20586;-83
2022/10/16 02:09:23;;;;;;;0.50;0.50;;;13.00;99.90;;;;;;4985287;28;20581;-84
2022/10/16 02:12:09;;;;;;;0.55;0.55;;;13.00;99.90;;;;;;4980286;28;20601;-87
2022/10/16 02:14:39;;;;;;;0.50;0.50;;;13.00;99.90;;;;;;5000006;28;20067;-84
2022/10/16 02:17:14;;;;;;;0.50;0.50;;;13.00;99.90;;;;;;4966453;28;20086;-81
2022/10/16 02:19:41;;;;;;;0.50;0.50;;;13.00;99.90;;;;;;4998524;28;20125;-84
2022/10/16 02:22:12;;;;;;;0.50;0.50;;;13.10;99.90;;;;;;4981594;28;20065;-83
2022/10/16 02:25:04;;;;;;;0.50;0.50;;;13.00;99.90;;;;;;4977271;28;20059;-83
2022/10/16 02:27:52;;;;;;;0.50;0.50;;;13.10;99.90;;;;;;4982887;28;20051;-85
2022/10/16 02:30:18;;;;;;;0.52;0.52;;;13.10;99.90;;;;;;4986496;28;20168;-82
2022/10/16 02:32:47;;;;;;;0.50;0.50;;;13.10;99.90;;;;;;4977228;28;20178;-82
2022/10/16 02:35:18;;;;;;;0.50;0.50;;;13.10;99.90;;;;;;4982012;28;20048;-83
2022/10/16 02:37:48;;;;;;;0.60;0.60;;;13.10;99.90;;;;;;4944865;28;20058;-85
2022/10/16 02:40:15;;;;;;;0.50;0.50;;;13.10;99.90;;;;;;4945485;28;20047;-83
2022/10/16 02:42:41;;;;;;;0.50;0.50;;;13.20;99.90;;;;;;4968317;28;20559;-83
2022/10/16 02:45:11;;;;;;;0.50;0.50;;;13.20;99.90;;;;;;4999949;28;20794;-83
2022/10/16 02:47:38;;;;;;;0.50;0.50;;;13.20;99.90;;;;;;4999744;28;20204;-81
2022/10/16 02:50:04;;;;;;;0.60;0.60;;;13.20;99.90;;;;;;4965798;28;20044;-82
2022/10/16 02:52:30;;;;;;;0.50;0.50;;;13.20;99.90;;;;;;4980428;28;20625;-81
2022/10/16 02:54:55;;;;;;;0.50;0.50;;;13.30;99.90;;;;;;4978002;28;20883;-83
2022/10/16 02:57:21;;;;;;;0.50;0.50;;;13.40;99.90;;;;;;4942627;28;20218;-84
2022/10/16 02:59:50;;;;;;;0.50;0.50;;;13.40;99.90;;;;;;4983155;28;20055;-84
2022/10/16 03:02:25;;;;;;;0.50;0.50;;;13.50;99.90;;;;;;4991643;28;20066;-89
2022/10/16 03:04:51;;;;;;;0.50;0.50;;;13.50;99.90;;;;;;4994865;28;20561;-84
2022/10/16 03:07:20;;;;;;;0.50;0.50;;;13.50;99.90;;;;;;4979596;28;20445;-86
2022/10/16 03:10:07;;;;;;;0.60;0.60;;;13.50;99.90;;;;;;5002934;28;20048;-84
2022/10/16 03:12:45;;;;;;;0.60;0.60;;;13.50;99.90;;;;;;4980679;28;20068;-85
2022/10/16 03:15:10;;;;;;;0.60;0.60;;;13.50;99.90;;;;;;4995973;28;20436;-85
2022/10/16 03:17:39;;;;;;;0.55;0.55;;;13.50;99.90;;;;;;4981443;28;20105;-86
2022/10/16 03:20:08;;;;;;;0.50;0.50;;;13.60;99.90;;;;;;4971995;28;20367;-83
2022/10/16 03:22:49;;;;;;;0.50;0.50;;;13.60;99.90;;;;;;4977614;28;20614;-88
2022/10/16 03:25:15;;;;;;;0.50;0.50;;;13.60;99.90;;;;;;4991668;28;20056;-85
2022/10/16 03:27:47;;;;;;;0.60;0.60;;;13.60;99.90;;;;;;4986070;28;20381;-86
2022/10/16 03:30:19;;;;;;;0.50;0.50;;;13.70;99.90;;;;;;4986471;28;20941;-87
2022/10/16 03:32:53;;;;;;;0.55;0.55;;;13.60;99.90;;;;;;4977279;28;20130;-86
2022/10/16 03:35:40;;;;;;;0.50;0.50;;;13.70;99.90;;;;;;4994179;28;20853;-86
2022/10/16 03:40:55;;;;;;;0.52;0.52;;;13.70;99.90;;;;;;4997429;28;20048;-85
2022/10/16 03:43:33;;;;;;;0.50;0.50;;;13.70;99.90;;;;;;4994209;28;20105;-87
2022/10/16 03:46:15;;;;;;;0.50;0.50;;;13.70;99.90;;;;;;4985205;28;20371;-85
2022/10/16 03:49:04;;;;;;;0.60;0.60;;;13.70;99.90;;;;;;4978724;28;20167;-88
2022/10/16 03:51:30;;;;;;;0.50;0.50;;;13.70;99.90;;;;;;4993184;28;20479;-84
2022/10/16 03:54:06;;;;;;;;;;;;;;;;;;;;;
2022/10/16 03:56:40;;;;;;;0.60;0.60;;;13.60;99.90;;;;;;4994727;28;20762;-85
2022/10/16 03:59:06;;;;;;;0.50;0.50;;;13.70;99.90;;;;;;4975447;28;20401;-85
2022/10/16 04:01:43;;;;;;;0.50;0.50;;;13.60;99.90;;;;;;4971664;28;20052;-85
2022/10/16 04:04:15;;;;;;;0.50;0.50;;;13.70;99.90;;;;;;4951766;28;20865;-86
2022/10/16 04:06:41;;;;;;;0.50;0.50;;;13.60;99.90;;;;;;4986876;28;20048;-84
2022/10/16 04:09:16;;;;;;;0.50;0.50;;;13.60;99.90;;;;;;4972118;28;20044;-84
2022/10/16 04:11:43;;;;;;;0.50;0.50;;;13.60;99.90;;;;;;4981517;28;20051;-84
2022/10/16 04:14:11;;;;;;;0.50;0.50;;;13.60;99.90;;;;;;4961630;28;20419;-85
2022/10/16 04:16:40;;;;;;;0.50;0.50;;;13.60;99.90;;;;;;4987308;28;20568;-84
2022/10/16 04:19:09;;;;;;;0.50;0.50;;;13.60;99.90;;;;;;4982104;28;20079;-83
2022/10/16 04:21:40;;;;;;;0.50;0.50;;;13.60;99.90;;;;;;4968513;28;20210;-83
2022/10/16 04:24:11;;;;;;;0.50;0.50;;;13.60;99.90;;;;;;4986245;28;20270;-85
2022/10/16 04:26:37;;;;;;;0.50;0.50;;;13.60;99.90;;;;;;4978750;28;20083;-83
2022/10/16 04:29:03;;;;;;;0.50;0.50;;;13.60;99.90;;;;;;4975523;28;20044;-81
2022/10/16 04:31:29;;;;;;;0.50;0.50;;;13.60;99.90;;;;;;4985305;28;20047;-85
2022/10/16 04:33:55;;;;;;;0.50;0.50;;;13.50;99.90;;;;;;4977364;28;20047;-82
2022/10/16 04:36:21;;;;;;;0.50;0.50;;;13.50;99.90;;;;;;5004906;28;20075;-82
2022/10/16 04:38:47;;;;;;;0.50;0.50;;;13.50;99.90;;;;;;4961956;28;20040;-85
2022/10/16 04:41:13;;;;;;;0.50;0.50;;;13.50;99.90;;;;;;4954172;28;20051;-83
2022/10/16 04:43:39;;;;;;;0.50;0.50;;;13.40;99.90;;;;;;4984163;28;20631;-83
2022/10/16 04:46:05;;;;;;;0.50;0.50;;;13.50;99.90;;;;;;4985070;28;20548;-83
2022/10/16 04:48:33;;;;;;;0.50;0.50;;;13.50;99.90;;;;;;4953269;28;20963;-83
2022/10/16 04:50:59;;;;;;;0.50;0.50;;;13.50;99.90;;;;;;4960937;28;20052;-83
2022/10/16 04:53:26;;;;;;;0.50;0.50;;;13.50;99.90;;;;;;4962602;28;20459;-84
2022/10/16 04:55:52;;;;;;;0.50;0.50;;;13.40;99.90;;;;;;4985785;28;20576;-87
2022/10/16 04:58:18;;;;;;;0.50;0.50;;;13.40;99.90;;;;;;4985552;28;20075;-83
2022/10/16 05:00:45;;;;;;;0.50;0.50;;;13.40;99.90;;;;;;4963750;28;20062;-83
2022/10/16 05:03:12;;;;;;;0.50;0.50;;;13.40;99.90;;;;;;4980945;28;20044;-81
2022/10/16 05:05:44;;;;;;;0.50;0.50;;;13.40;99.90;;;;;;4980532;28;20047;-84
2022/10/16 05:08:10;;;;;;;0.50;0.50;;;13.40;99.90;;;;;;5001183;28;20567;-85
2022/10/16 05:10:41;;;;;;;0.50;0.50;;;13.40;99.90;;;;;;4985216;28;20298;-85
2022/10/16 05:13:07;;;;;;;0.50;0.50;;;13.40;99.90;;;;;;4979715;28;20399;-84
2022/10/16 05:15:33;;;;;;;0.50;0.50;;;13.40;99.90;;;;;;4977756;28;20529;-84
2022/10/16 05:17:59;;;;;;;0.50;0.50;;;13.30;99.90;;;;;;4977723;28;20181;-84
2022/10/16 05:20:25;;;;;;;0.60;0.60;;;13.40;99.90;;;;;;4982935;28;20043;-83
2022/10/16 05:22:51;;;;;;;0.50;0.50;;;13.30;99.90;;;;;;4961703;28;20520;-85
2022/10/16 05:25:18;;;;;;;0.50;0.50;;;13.30;99.90;;;;;;4982987;28;20296;-82
2022/10/16 05:27:48;;;;;;;0.50;0.50;;;13.20;99.90;;;;;;4959303;28;20352;-86
2022/10/16 05:30:14;;;;;;;0.50;0.50;;;13.20;99.90;;;;;;4978945;28;20952;-84
2022/10/16 05:32:45;;;;;;;0.50;0.50;;;13.20;99.90;;;;;;4988128;28;20142;-86
2022/10/16 05:35:13;;;;;;;0.50;0.50;;;13.20;99.90;;;;;;4980911;28;20059;-81
2022/10/16 05:37:42;;;;;;;0.50;0.50;;;13.20;99.90;;;;;;4995424;28;20075;-85
2022/10/16 05:40:09;;;;;;;0.50;0.50;;;13.20;99.90;;;;;;5000146;28;20097;-84
2022/10/16 05:42:37;;;;;;;0.50;0.50;;;13.20;99.90;;;;;;4976519;28;20131;-83
2022/10/16 05:45:04;;;;;;;0.50;0.50;;;13.30;99.90;;;;;;4952445;28;20047;-82
2022/10/16 05:47:31;;;;;;;0.50;0.50;;;13.20;99.90;;;;;;4963763;28;20132;-83
2022/10/16 05:49:57;;;;;;;0.50;0.50;;;13.20;99.90;;;;;;4961645;28;20086;-82
2022/10/16 05:52:23;;;;;;;0.50;0.50;;;13.20;99.90;;;;;;4964211;28;20047;-84
2022/10/16 05:54:49;;;;;;;0.50;0.50;;;13.20;99.90;;;;;;4981633;28;20063;-85
2022/10/16 05:57:18;;;;;;;0.50;0.50;;;13.20;99.90;;;;;;4964818;28;20528;-84
2022/10/16 06:00:20;;;;;;;0.60;0.60;;;13.20;99.90;;;;;;4971421;28;20818;-85
2022/10/16 06:02:49;;;;;;;0.50;0.50;;;13.20;99.90;;;;;;4983291;28;20071;-85
2022/10/16 06:05:22;;;;;;;0.50;0.50;;;13.10;99.90;;;;;;5001206;28;20048;-83
2022/10/16 06:07:50;;;;;;;0.50;0.50;;;13.20;99.90;;;;;;4971212;28;20067;-84
2022/10/16 06:10:19;;;;;;;0.50;0.50;;;13.10;99.90;;;;;;4951808;28;20817;-85
2022/10/16 06:12:44;;;;;;;0.50;0.50;;;13.10;99.90;;;;;;4975143;28;20055;-86
2022/10/16 06:15:10;;;;;;;0.50;0.50;;;13.10;99.90;;;;;;4985021;28;20052;-85
2022/10/16 06:17:36;;;;;;;0.50;0.50;;;13.10;99.90;;;;;;4988794;28;20052;-84
2022/10/16 06:20:08;;;;;;;0.60;0.60;;;13.10;99.90;;;;;;4986251;28;20528;-87
2022/10/16 06:22:36;;;;;;;0.50;0.50;;;13.10;99.90;;;;;;4988590;28;20077;-86
2022/10/16 06:25:05;;;;;;;0.50;0.50;;;13.10;99.90;;;;;;4985613;28;20052;-86
2022/10/16 06:27:31;;;;;;;0.60;0.60;;;13.10;99.90;;;;;;4980972;28;20063;-83
2022/10/16 06:29:57;;;;;;;0.50;0.50;;;13.10;99.90;;;;;;4977421;28;20497;-85
2022/10/16 06:32:34;;;;;;;0.60;0.60;;;13.20;99.90;;;;;;4987086;28;20185;-84
2022/10/16 06:35:11;;;;;;;0.60;0.60;;;13.20;99.90;;;;;;4970103;28;20036;-87
2022/10/16 06:37:48;;;;;;;0.50;0.50;;;13.20;99.90;;;;;;4994378;28;20752;-87
2022/10/16 06:40:17;;;;;;;0.50;0.50;;;13.20;99.90;;;;;;4955502;28;20140;-84
2022/10/16 06:42:43;;;;;;;0.50;0.50;;;13.20;99.90;;;;;;4973512;28;20470;-84
2022/10/16 06:45:39;;;;;;;0.50;0.50;;;13.20;99.90;;;;;;5017610;28;20047;-87
2022/10/16 06:48:07;;;;;;;0.50;0.50;;;13.20;99.90;;;;;;4992375;28;20137;-86
2022/10/16 06:50:39;;;;;;;0.50;0.50;;;13.30;99.90;;;;;;4992565;28;20097;-87
2022/10/16 06:53:19;;;;;;;0.50;0.50;;;13.30;99.90;;;;;;4972879;28;20130;-88
2022/10/16 06:55:48;;;;;;;0.50;0.50;;;13.30;99.90;;;;;;4983361;28;20518;-82
2022/10/16 06:58:14;;;;;;;0.50;0.50;;;13.40;99.90;;;;;;4969760;28;20052;-83
2022/10/16 07:00:44;;;;;;;0.50;0.50;;;13.40;99.90;;;;;;4982414;28;20056;-86
2022/10/16 07:03:13;;;;;;;0.50;0.50;;;13.30;99.90;;;;;;4993467;28;20924;-83
2022/10/16 07:05:42;;;;;;;0.50;0.50;;;13.30;99.90;;;;;;4992600;28;20378;-85
2022/10/16 07:08:09;;;;;;;0.60;0.60;;;13.30;99.90;;;;;;5009826;28;20577;-84
2022/10/16 07:10:38;;;;;;;0.50;0.50;;;13.40;99.90;;;;;;4998888;28;20598;-86
2022/10/16 07:13:07;;;;;;;0.50;0.50;;;13.50;99.90;;;;;;5001021;28;20524;-83
2022/10/16 07:15:36;;;;;;;0.50;0.50;;;13.50;99.90;;;;;;4975550;28;20120;-85
2022/10/16 07:18:11;;;;;;;0.50;0.50;;;13.60;99.90;;;;;;4978933;28;20146;-85
2022/10/16 07:20:45;;;;;;;0.50;0.50;;;13.70;99.90;;;;;;4978049;28;20052;-84
2022/10/16 07:23:14;;;;;;;0.60;0.60;;;13.90;99.90;;;;;;5007388;28;20055;-84
2022/10/16 07:25:45;;;;;;;0.50;0.50;;;14.20;99.90;;;;;;4980276;28;20040;-85
2022/10/16 07:28:27;;;;;;;0.50;0.50;;;14.40;99.90;;;;;;4981049;28;20910;-85
2022/10/16 07:31:02;;;;;;;0.50;0.50;;;14.40;99.90;;;;;;5012308;28;20105;-83
2022/10/16 07:33:44;;;;;;;0.50;0.50;;;14.20;99.90;;;;;;5010111;28;20052;-86
2022/10/16 07:36:28;;;;;;;0.50;0.50;;;14.10;99.90;;;;;;5009632;28;20063;-83
2022/10/16 07:39:10;;;;;;;0.50;0.50;;;14.00;99.90;;;;;;4971524;28;20048;-86
2022/10/16 07:42:08;;;;;;;0.40;0.40;;;14.00;99.90;;;;;;4994749;28;20040;-85
2022/10/16 07:44:53;;;;;;;;;;;;;;;;;;;;;
2022/10/16 07:47:45;;;;;;;0.50;0.50;;;14.10;99.90;;;;;;4983407;28;20048;-87
2022/10/16 07:50:34;;;;;;;0.50;0.50;;;14.20;99.90;;;;;;4991363;28;20063;-85
2022/10/16 07:53:00;;;;;;;0.50;0.50;;;14.30;99.90;;;;;;4973399;28;20120;-81
2022/10/16 07:55:27;;;;;;;0.50;0.50;;;14.30;99.90;;;;;;4985997;28;20045;-80
2022/10/16 07:57:56;;;;;;;0.50;0.50;;;14.40;99.90;;;;;;4973923;28;20522;-85
2022/10/16 08:00:26;;;;;;;0.50;0.50;;;14.40;99.90;;;;;;4966055;28;20873;-85
2022/10/16 08:03:04;;;;;;;0.50;0.50;;;14.30;99.90;;;;;;4970829;28;20117;-85
2022/10/16 08:05:42;;;;;;;0.50;0.50;;;14.30;99.90;;;;;;4981502;28;20305;-86
2022/10/16 08:08:18;;;;;;;0.50;0.50;;;14.30;99.90;;;;;;4971038;28;20370;-82
2022/10/16 08:10:45;;;;;;;0.50;0.50;;;14.30;99.90;;;;;;4976463;28;20490;-82
2022/10/16 08:13:33;;;;;;;0.50;0.50;;;14.30;99.90;;;;;;4978041;28;20857;-86
2022/10/16 08:16:20;;;;;;;0.50;0.50;;;14.40;99.90;;;;;;4980638;28;20572;-87
2022/10/16 08:18:52;;;;;;;0.50;0.50;;;14.30;99.90;;;;;;4996049;28;20551;-85
2022/10/16 08:21:20;;;;;;;0.50;0.50;;;14.40;99.90;;;;;;4995872;28;20113;-85
2022/10/16 08:23:49;;;;;;;0.50;0.50;;;14.40;99.90;;;;;;4979764;28;20893;-86
2022/10/16 08:26:20;;;;;;;0.50;0.50;;;14.60;99.90;;;;;;5001597;28;20055;-85
2022/10/16 08:29:04;;;;;;;0.50;0.50;;;14.70;99.90;;;;;;4967923;28;20044;-83
2022/10/16 08:31:30;;;;;;;0.50;0.50;;;14.80;99.90;;;;;;4967980;28;20431;-82
2022/10/16 08:34:02;;;;;;;0.50;0.50;;;14.90;99.90;;;;;;4980800;28;20047;-87
2022/10/16 08:36:30;;;;;;;0.50;0.50;;;14.90;99.90;;;;;;4961261;28;20223;-85
2022/10/16 08:39:05;;;;;;;0.50;0.50;;;14.90;99.90;;;;;;4993438;28;20162;-89
2022/10/16 08:41:33;;;;;;;0.50;0.50;;;14.80;99.90;;;;;;4991266;28;20358;-83
2022/10/16 08:44:38;;;;;;;0.50;0.50;;;14.90;99.90;;;;;;4997431;28;20429;-84
2022/10/16 08:47:31;;;;;;;0.50;0.50;;;14.90;99.90;;;;;;5009542;28;20456;-90
2022/10/16 08:50:11;;;;;;;0.50;0.50;;;15.00;99.90;;;;;;4987204;28;20044;-90
2022/10/16 08:52:41;;;;;;;0.50;0.50;;;15.30;99.90;;;;;;4992957;28;20095;-85
2022/10/16 08:55:42;;;;;;;0.50;0.50;;;15.50;99.90;;;;;;4985550;28;20454;-86
2022/10/16 08:58:28;;;;;;;0.50;0.50;;;15.50;99.90;;;;;;4980465;28;20101;-83
2022/10/16 09:01:14;;;;;;;0.50;0.50;;;15.60;99.90;;;;;;4990543;28;20044;-87
2022/10/16 09:04:23;;;;;;;0.45;0.45;;;15.60;99.90;;;;;;4982949;28;20155;-84
2022/10/16 09:07:02;;;;;;;0.50;0.50;;;15.60;99.90;;;;;;4986221;28;20059;-82
2022/10/16 09:10:25;;;;;;;0.50;0.50;;;15.50;99.90;;;;;;5007043;28;20948;-84
2022/10/16 09:13:24;;;;;;;0.50;0.50;;;15.60;99.90;;;;;;4902221;28;20094;-84
2022/10/16 09:16:24;;;;;;;0.50;0.50;;;16.00;99.90;;;;;;4992303;28;20284;-86
2022/10/16 09:19:27;;;;;;;0.40;0.40;;;16.00;99.90;;;;;;4991267;28;20474;-81
2022/10/16 09:21:54;;;;;;;0.40;0.40;;;16.10;99.90;;;;;;4981817;28;20126;-81
2022/10/16 09:24:29;;;;;;;0.50;0.50;;;16.10;99.90;;;;;;4994111;28;20413;-85
2022/10/16 09:27:00;;;;;;;0.50;0.50;;;16.20;99.90;;;;;;4984758;28;20060;-84
2022/10/16 09:29:26;;;;;;;0.47;0.47;;;16.30;99.90;;;;;;4995033;28;20575;-82
2022/10/16 09:32:14;;;;;;;0.40;0.40;;;16.30;99.90;;;;;;4989761;28;20879;-85
2022/10/16 09:34:57;;;;;;;0.40;0.40;;;16.40;99.90;;;;;;4954024;28;20046;-84
2022/10/16 09:37:39;;;;;;;0.40;0.40;;;16.40;99.90;;;;;;4988980;28;20048;-81
2022/10/16 09:40:12;;;;;;;0.40;0.40;;;16.60;99.90;;;;;;4987557;28;20769;-86
2022/10/16 09:42:47;;;;;;;0.43;0.43;;;16.60;99.90;;;;;;4975425;28;20077;-83
2022/10/16 09:45:24;;;;;;;0.40;0.40;;;16.70;99.90;;;;;;4992618;28;20048;-83
2022/10/16 09:47:51;;;;;;;0.40;0.40;;;16.80;99.90;;;;;;4992968;28;20269;-85
2022/10/16 09:50:34;;;;;;;0.50;0.50;;;16.80;99.90;;;;;;4975202;28;20056;-84
2022/10/16 09:53:11;;;;;;;0.40;0.40;;;16.90;99.90;;;;;;4982688;28;20156;-86
2022/10/16 09:55:49;;;;;;;0.40;0.40;;;16.80;99.90;;;;;;4975210;28;20501;-85
2022/10/16 09:58:21;;;;;;;0.40;0.40;;;16.80;99.90;;;;;;4966179;28;20395;-84
2022/10/16 10:00:55;;;;;;;0.40;0.40;;;16.90;99.90;;;;;;4984309;28;20093;-83
2022/10/16 10:03:39;;;;;;;0.40;0.40;;;16.90;99.90;;;;;;5007626;28;20550;-83
2022/10/16 10:06:38;;;;;;;0.50;0.50;;;17.00;99.90;;;;;;4977231;28;20513;-81
2022/10/16 10:09:15;;;;;;;0.40;0.40;;;17.20;99.90;;;;;;4955405;28;20059;-81
2022/10/16 10:12:04;;;;;;;0.40;0.40;;;17.30;99.90;;;;;;4977981;28;20527;-86
2022/10/16 10:14:49;;;;;;;0.40;0.40;;;17.30;99.90;;;;;;4990260;28;20055;-83
2022/10/16 10:17:17;;;;;;;0.40;0.40;;;17.40;99.90;;;;;;4970841;28;20071;-82
2022/10/16 10:19:49;;;;;;;0.40;0.40;;;17.40;99.90;;;;;;4990382;28;20082;-82
2022/10/16 10:22:42;;;;;;;0.40;0.40;;;17.30;99.90;;;;;;5012935;28;20592;-84
2022/10/16 10:25:15;;;;;;;0.40;0.40;;;17.50;99.90;;;;;;4984898;28;20498;-84
2022/10/16 10:28:01;;;;;;;0.40;0.40;;;17.40;99.90;;;;;;4974884;28;20117;-83
2022/10/16 10:30:53;;;;;;;0.40;0.40;;;17.60;99.90;;;;;;4979227;28;20055;-84
2022/10/16 10:33:32;;;;;;;0.40;0.40;;;17.80;99.90;;;;;;4985627;28;20128;-80
2022/10/16 10:36:14;;;;;;;0.40;0.40;;;18.10;99.90;;;;;;4978493;28;20154;-81
2022/10/16 10:38:56;;;;;;;0.40;0.40;;;18.10;99.90;;;;;;4977055;28;20105;-83
2022/10/16 10:41:55;;;;;;;0.40;0.40;;;18.30;99.90;;;;;;4973216;28;20867;-81
2022/10/16 10:44:26;;;;;;;0.40;0.40;;;18.20;99.90;;;;;;4980678;28;20465;-81
2022/10/16 10:47:21;;;;;;;0.40;0.40;;;18.30;99.90;;;;;;4983870;28;20056;-80
2022/10/16 10:49:59;;;;;;;0.40;0.40;;;18.40;99.90;;;;;;4963711;28;20469;-81
2022/10/16 10:52:36;;;;;;;0.40;0.40;;;18.20;99.90;;;;;;4983181;28;20058;-86
2022/10/16 10:55:36;;;;;;;0.40;0.40;;;18.70;99.90;;;;;;4998680;28;20040;-81
2022/10/16 10:58:08;;;;;;;0.40;0.40;;;19.00;99.90;;;;;;4978747;28;20105;-83
2022/10/16 11:01:05;;;;;;;0.40;0.40;;;18.80;99.90;;;;;;4986698;28;20533;-83
2022/10/16 11:03:58;;;;;;;0.40;0.40;;;18.80;99.90;;;;;;4982574;28;20048;-85
2022/10/16 11:06:28;;;;;;;0.40;0.40;;;18.80;99.90;;;;;;4999856;28;20072;-82
2022/10/16 11:09:00;;;;;;;0.40;0.40;;;18.80;99.90;;;;;;5013059;28;20887;-82
2022/10/16 11:11:32;;;;;;;0.40;0.40;;;18.50;99.90;;;;;;4992795;28;20076;-85
2022/10/16 11:14:38;;;;;;;0.40;0.40;;;18.40;99.90;;;;;;5011673;28;20036;-85
2022/10/16 11:17:31;;;;;;;0.40;0.40;;;17.90;99.90;;;;;;4973900;28;20222;-82
2022/10/16 11:20:20;;;;;;;0.50;0.50;;;17.70;99.90;;;;;;4965246;28;20908;-85
2022/10/16 11:23:19;;;;;;;0.40;0.40;;;17.80;99.90;;;;;;4988784;28;20677;-84
2022/10/16 11:25:50;;;;;;;0.40;0.40;;;17.90;99.90;;;;;;4977754;28;20067;-84
2022/10/16 11:28:31;;;;;;;0.50;0.50;;;17.80;99.90;;;;;;5000118;28;20946;-83
2022/10/16 11:31:08;;;;;;;0.40;0.40;;;17.80;99.90;;;;;;4994457;28;20732;-81
2022/10/16 11:33:42;;;;;;;0.40;0.40;;;18.30;99.90;;;;;;4975154;28;20154;-85
2022/10/16 11:36:45;;;;;;;0.45;0.45;;;18.40;99.90;;;;;;4972007;28;20075;-87
2022/10/16 11:39:31;;;;;;;0.40;0.40;;;18.50;99.90;;;;;;4978440;28;20056;-83
2022/10/16 11:42:27;;;;;;;0.40;0.40;;;19.00;99.90;;;;;;4980024;28;20043;-83
2022/10/16 11:45:30;;;;;;;0.40;0.40;;;19.40;99.90;;;;;;4972390;28;20082;-82
2022/10/16 11:48:26;;;;;;;0.50;0.50;;;19.30;99.90;;;;;;4997957;28;20469;-82
2022/10/16 11:51:07;;;;;;;0.40;0.40;;;18.70;99.90;;;;;;4967074;28;20048;-84
2022/10/16 11:54:09;;;;;;;0.40;0.40;;;18.90;99.90;;;;;;4989697;28;20048;-81
2022/10/16 11:56:39;;;;;;;0.40;0.40;;;18.40;99.90;;;;;;4991775;28;20090;-86
2022/10/16 11:59:30;;;;;;;0.40;0.40;;;19.10;99.90;;;;;;5015150;28;20109;-83
2022/10/16 12:02:23;;;;;;;0.50;0.50;;;19.10;99.90;;;;;;4989868;28;20318;-82
2022/10/16 12:05:01;;;;;;;0.40;0.40;;;18.70;99.90;;;;;;4969617;28;20040;-87
2022/10/16 12:07:38;;;;;;;0.40;0.40;;;18.80;99.90;;;;;;4988632;28;20475;-86
2022/10/16 12:10:28;;;;;;;0.40;0.40;;;19.00;99.90;;;;;;4993308;28;20468;-84
2022/10/16 12:12:56;;;;;;;0.40;0.40;;;18.60;99.90;;;;;;4973703;28;20304;-82
2022/10/16 12:15:26;;;;;;;0.40;0.40;;;18.80;99.90;;;;;;4972382;28;20052;-86
2022/10/16 12:18:03;;;;;;;0.40;0.40;;;18.50;99.90;;;;;;4993928;28;20059;-85
2022/10/16 12:20:37;;;;;;;0.47;0.47;;;18.30;99.90;;;;;;4970858;28;20051;-86
2022/10/16 12:23:23;;;;;;;0.40;0.40;;;18.30;99.90;;;;;;4983478;28;20044;-85
2022/10/16 12:26:02;;;;;;;0.40;0.40;;;18.40;99.90;;;;;;4980080;28;20032;-86
2022/10/16 12:28:32;;;;;;;0.50;0.50;;;18.70;99.90;;;;;;4988097;28;20442;-82
2022/10/16 12:31:08;;;;;;;0.40;0.40;;;19.00;99.90;;;;;;4975539;28;20055;-84
2022/10/16 12:34:00;;;;;;;0.40;0.40;;;18.90;99.90;;;;;;4997886;28;20062;-83
2022/10/16 12:36:32;;;;;;;0.50;0.50;;;19.10;99.90;;;;;;4964533;28;21085;-84
2022/10/16 12:38:59;;;;;;;0.50;0.50;;;19.50;99.90;;;;;;4981416;28;20083;-83
2022/10/16 12:41:27;;;;;;;0.40;0.40;;;19.80;99.90;;;;;;4980754;28;20059;-84
2022/10/16 12:43:56;;;;;;;0.47;0.47;;;19.70;99.90;;;;;;4993415;28;20606;-84
2022/10/16 12:46:44;;;;;;;0.50;0.50;;;20.00;99.90;;;;;;4986078;28;20071;-83
2022/10/16 12:49:18;;;;;;;0.40;0.40;;;20.10;99.90;;;;;;4982684;28;20040;-84
2022/10/16 12:51:47;;;;;;;0.40;0.40;;;19.90;99.90;;;;;;4986947;28;20048;-85
2022/10/16 12:54:43;;;;;;;0.50;0.50;;;19.80;99.90;;;;;;4984279;28;20077;-83
2022/10/16 12:57:55;;;;;;;0.40;0.40;;;20.10;99.90;;;;;;4981346;28;21186;-81
2022/10/16 13:00:25;;;;;;;0.40;0.40;;;20.20;99.90;;;;;;4978984;28;20052;-79
2022/10/16 13:02:56;;;;;;;0.40;0.40;;;20.20;99.90;;;;;;4981342;28;20153;-78
2022/10/16 13:05:41;;;;;;;0.50;0.50;;;20.30;99.90;;;;;;4988690;28;20761;-81
2022/10/16 13:08:34;;;;;;;0.40;0.40;;;20.30;99.90;;;;;;5003549;28;20485;-83
2022/10/16 13:11:16;;;;;;;0.50;0.50;;;20.10;99.90;;;;;;5003318;28;20431;-84
2022/10/16 13:14:20;;;;;;;0.40;0.40;;;20.00;99.90;;;;;;4978697;28;20048;-82
2022/10/16 13:17:11;;;;;;;0.40;0.40;;;20.10;99.90;;;;;;4985354;28;20101;-82
2022/10/16 13:19:58;;;;;;;0.40;0.40;;;20.20;99.90;;;;;;4958260;28;20139;-84
2022/10/16 13:23:13;;;;;;;0.45;0.45;;;20.20;99.90;;;;;;4953162;28;20546;-82
2022/10/16 13:26:20;;;;;;;0.40;0.40;;;19.80;99.90;;;;;;4975263;28;20548;-81
2022/10/16 13:28:52;;;;;;;0.40;0.40;;;19.90;99.90;;;;;;5003538;28;20572;-82
2022/10/16 13:31:26;;;;;;;0.40;0.40;;;19.70;99.90;;;;;;5002131;28;21083;-82
2022/10/16 13:34:05;;;;;;;0.40;0.40;;;19.80;99.90;;;;;;4950074;28;20043;-85
2022/10/16 13:36:42;;;;;;;0.40;0.40;;;19.90;99.90;;;;;;4994030;28;20081;-83
2022/10/16 13:39:21;;;;;;;0.40;0.40;;;19.40;99.90;;;;;;5000158;28;20055;-84
2022/10/16 13:42:22;;;;;;;0.50;0.50;;;19.50;99.90;;;;;;4997532;28;20904;-83
2022/10/16 13:44:56;;;;;;;0.40;0.40;;;19.80;99.90;;;;;;4983093;28;20043;-82
2022/10/16 13:47:29;;;;;;;0.40;0.40;;;19.80;99.90;;;;;;4947733;28;20135;-81
2022/10/16 13:50:37;;;;;;;0.47;0.47;;;19.90;99.90;;;;;;4999988;28;20047;-84